ADDS TAF Board (Experimental) INFO Settings

IDs: Format: Expanded Condensed

KPDX - Portland Intl Arpt, OR, US

Issued at 2322 UTC 04 Mar 2015
Updated at: 0012 UTC 05 Mar 2015
Time2353Z 05/01Z 05/02Z 05/03Z 05/04Z 05/05Z 05/06Z 05/07Z 05/08Z 05/09Z 05/10Z 05/11Z 05/12Z 05/13Z
Type OBS PRVL PRVL PRVL PRVL PRVL PRVL PRVL PRVL PRVL PRVL PRVL PRVL PRVL
VIS 10 >6 >6 >6 >6 >6 >6 >6 >6 >6 >6 >6 >6 >6
CIG -- -- -- -- -- -- -- -- -- -- -- -- -- --
Cover FEW SKC SKC SCT SCT SCT SCT SCT SCT SCT SCT SCT SCT SCT
FltCat VFR VFR VFR VFR VFR VFR VFR VFR VFR VFR VFR VFR VFR VFR
WX -- -- -- -- -- -- -- -- -- -- -- -- -- --
WDir 260 310 310 VRB VRB VRB VRB VRB VRB VRB VRB VRB VRB VRB
WSpd 4 5 5 3 3 3 3 3 3 3 3 3 3 3
WGst -- -- -- -- -- -- -- -- -- -- -- -- -- --
R03/21
XWnd 2 5 5 VRB VRB VRB VRB VRB VRB VRB VRB VRB VRB VRB
HWnd -3 -0 -0 VRB VRB VRB VRB VRB VRB VRB VRB VRB VRB VRB
R10/28
XWnd -3 1 1 VRB VRB VRB VRB VRB VRB VRB VRB VRB VRB VRB
HWnd -3 -5 -5 VRB VRB VRB VRB VRB VRB VRB VRB VRB VRB VRB

NOTE: TEMPO conditions in [brackets]. Keep in mind TEMPO conditions might be better (lower impact) than prevailing conditions.

Raw TAF
KPDX 042322Z 0500/0524 31005KT P6SM SKC
  FM050300 VRB03KT P6SM SCT250


Raw METAR
KPDX 042353Z 26004KT 10SM FEW250 14/M12 A3023 RMK AO2 SLP237 T01441117 10150 20050 56012
KPDX 042253Z 28005KT 10SM FEW250 14/M04 A3024 RMK AO2 SLP239 T01391044
KPDX 042153Z 29005KT 10SM FEW250 13/M04 A3025 RMK AO2 SLP242 T01281039

METAR Board
Radar Display
Forecast Discussion

TAF Board Legend

Potential Impact
Threat None Slight Moderate High
Visibility (sm) ≥5.1 5.1>X≥3 3>X≥1 <1
Ceiling (100 ft) ≥30.1 30.1>X≥10 10>X≥5 <5
Wind Speed (kt) <10 10≤X<20 20≤X<30 ≥30
Wind Gust (kt) <15 15≤X<25 25≤X<35 ≥35
Weather No Wx Reported VCTS,-TS,-FZRA,SN TS,FZRA +TS,+FZRA,+SN